sensor_id;sensor_type;location;lat;lon;timestamp;P1;durP1;ratioP1;P2;durP2;ratioP2
19171;SDS011;9718;52.200;21.052;2022-07-11T00:00:04;6.17;;;3.73;;
19171;SDS011;9718;52.200;21.052;2022-07-11T00:02:54;7.53;;;3.60;;
19171;SDS011;9718;52.200;21.052;2022-07-11T00:05:21;6.90;;;3.80;;
19171;SDS011;9718;52.200;21.052;2022-07-11T00:07:48;6.30;;;4.20;;
19171;SDS011;9718;52.200;21.052;2022-07-11T00:10:15;4.73;;;3.70;;
19171;SDS011;9718;52.200;21.052;2022-07-11T00:12:42;7.80;;;3.83;;
19171;SDS011;9718;52.200;21.052;2022-07-11T00:15:09;7.93;;;4.00;;
19171;SDS011;9718;52.200;21.052;2022-07-11T00:17:36;5.67;;;3.77;;
19171;SDS011;9718;52.200;21.052;2022-07-11T00:20:04;7.73;;;3.30;;
19171;SDS011;9718;52.200;21.052;2022-07-11T00:22:32;8.93;;;3.87;;
19171;SDS011;9718;52.200;21.052;2022-07-11T00:24:59;8.60;;;4.33;;
19171;SDS011;9718;52.200;21.052;2022-07-11T00:27:26;4.00;;;3.27;;
19171;SDS011;9718;52.200;21.052;2022-07-11T00:29:54;6.33;;;3.40;;
19171;SDS011;9718;52.200;21.052;2022-07-11T00:32:21;6.70;;;3.50;;
19171;SDS011;9718;52.200;21.052;2022-07-11T00:34:48;6.67;;;3.57;;
19171;SDS011;9718;52.200;21.052;2022-07-11T00:37:15;4.03;;;2.60;;
19171;SDS011;9718;52.200;21.052;2022-07-11T00:39:42;6.87;;;3.03;;
19171;SDS011;9718;52.200;21.052;2022-07-11T00:42:09;3.37;;;2.47;;
19171;SDS011;9718;52.200;21.052;2022-07-11T00:44:36;5.43;;;2.63;;
19171;SDS011;9718;52.200;21.052;2022-07-11T00:47:03;7.80;;;2.37;;
19171;SDS011;9718;52.200;21.052;2022-07-11T00:49:31;7.40;;;2.50;;
19171;SDS011;9718;52.200;21.052;2022-07-11T00:51:58;3.47;;;2.47;;
19171;SDS011;9718;52.200;21.052;2022-07-11T00:54:25;3.70;;;2.50;;
19171;SDS011;9718;52.200;21.052;2022-07-11T00:56:54;5.47;;;2.17;;
19171;SDS011;9718;52.200;21.052;2022-07-11T00:59:22;4.73;;;2.50;;
19171;SDS011;9718;52.200;21.052;2022-07-11T01:01:49;5.27;;;2.33;;
19171;SDS011;9718;52.200;21.052;2022-07-11T01:04:16;3.47;;;2.23;;
19171;SDS011;9718;52.200;21.052;2022-07-11T01:06:43;10.30;;;2.67;;
19171;SDS011;9718;52.200;21.052;2022-07-11T01:09:10;6.47;;;2.33;;
19171;SDS011;9718;52.200;21.052;2022-07-11T01:11:38;3.83;;;2.00;;
19171;SDS011;9718;52.200;21.052;2022-07-11T01:14:05;5.27;;;2.43;;
19171;SDS011;9718;52.200;21.052;2022-07-11T01:16:32;2.60;;;2.00;;
19171;SDS011;9718;52.200;21.052;2022-07-11T01:18:59;7.03;;;2.30;;
19171;SDS011;9718;52.200;21.052;2022-07-11T01:24:07;4.23;;;2.10;;
19171;SDS011;9718;52.200;21.052;2022-07-11T01:26:35;7.27;;;2.07;;
19171;SDS011;9718;52.200;21.052;2022-07-11T01:29:09;5.87;;;2.40;;
19171;SDS011;9718;52.200;21.052;2022-07-11T01:31:38;3.60;;;2.07;;
19171;SDS011;9718;52.200;21.052;2022-07-11T01:34:07;5.07;;;2.27;;
19171;SDS011;9718;52.200;21.052;2022-07-11T01:36:34;4.10;;;2.23;;
19171;SDS011;9718;52.200;21.052;2022-07-11T01:39:01;3.87;;;2.07;;
19171;SDS011;9718;52.200;21.052;2022-07-11T01:41:29;3.33;;;2.07;;
19171;SDS011;9718;52.200;21.052;2022-07-11T01:43:56;3.63;;;1.87;;
19171;SDS011;9718;52.200;21.052;2022-07-11T01:46:23;3.50;;;2.40;;
19171;SDS011;9718;52.200;21.052;2022-07-11T01:48:50;5.17;;;2.07;;
19171;SDS011;9718;52.200;21.052;2022-07-11T01:51:17;3.20;;;1.93;;
19171;SDS011;9718;52.200;21.052;2022-07-11T01:53:45;6.17;;;2.10;;
19171;SDS011;9718;52.200;21.052;2022-07-11T01:56:12;3.23;;;2.10;;
19171;SDS011;9718;52.200;21.052;2022-07-11T01:58:55;5.27;;;2.20;;
19171;SDS011;9718;52.200;21.052;2022-07-11T02:01:22;4.47;;;2.53;;
19171;SDS011;9718;52.200;21.052;2022-07-11T02:03:50;6.40;;;2.70;;
19171;SDS011;9718;52.200;21.052;2022-07-11T02:06:17;4.67;;;2.00;;
19171;SDS011;9718;52.200;21.052;2022-07-11T02:08:44;3.83;;;2.50;;
19171;SDS011;9718;52.200;21.052;2022-07-11T02:11:11;4.77;;;2.37;;
19171;SDS011;9718;52.200;21.052;2022-07-11T02:13:38;2.50;;;1.83;;
19171;SDS011;9718;52.200;21.052;2022-07-11T02:16:06;6.10;;;2.70;;
19171;SDS011;9718;52.200;21.052;2022-07-11T02:18:34;7.30;;;2.30;;
19171;SDS011;9718;52.200;21.052;2022-07-11T02:21:01;4.97;;;2.60;;
19171;SDS011;9718;52.200;21.052;2022-07-11T02:23:28;6.87;;;2.57;;
19171;SDS011;9718;52.200;21.052;2022-07-11T02:25:56;6.67;;;2.77;;
19171;SDS011;9718;52.200;21.052;2022-07-11T02:28:23;4.90;;;2.53;;
19171;SDS011;9718;52.200;21.052;2022-07-11T02:30:50;8.87;;;2.77;;
19171;SDS011;9718;52.200;21.052;2022-07-11T02:33:17;6.90;;;3.00;;
19171;SDS011;9718;52.200;21.052;2022-07-11T02:35:45;7.97;;;2.67;;
19171;SDS011;9718;52.200;21.052;2022-07-11T02:38:12;5.53;;;2.93;;
19171;SDS011;9718;52.200;21.052;2022-07-11T02:40:43;9.90;;;3.93;;
19171;SDS011;9718;52.200;21.052;2022-07-11T02:43:14;9.67;;;3.40;;
19171;SDS011;9718;52.200;21.052;2022-07-11T02:45:42;5.37;;;3.20;;
19171;SDS011;9718;52.200;21.052;2022-07-11T02:48:09;11.03;;;3.10;;
19171;SDS011;9718;52.200;21.052;2022-07-11T02:50:36;16.17;;;4.30;;
19171;SDS011;9718;52.200;21.052;2022-07-11T02:53:03;5.70;;;3.37;;
19171;SDS011;9718;52.200;21.052;2022-07-11T02:55:30;10.13;;;3.17;;
19171;SDS011;9718;52.200;21.052;2022-07-11T02:57:57;8.50;;;4.40;;
19171;SDS011;9718;52.200;21.052;2022-07-11T03:00:25;8.57;;;4.13;;
19171;SDS011;9718;52.200;21.052;2022-07-11T03:02:52;9.27;;;4.57;;
19171;SDS011;9718;52.200;21.052;2022-07-11T03:05:20;13.60;;;4.53;;
19171;SDS011;9718;52.200;21.052;2022-07-11T03:07:47;10.13;;;4.30;;
19171;SDS011;9718;52.200;21.052;2022-07-11T03:10:15;9.67;;;3.90;;
19171;SDS011;9718;52.200;21.052;2022-07-11T03:12:42;12.13;;;4.50;;
19171;SDS011;9718;52.200;21.052;2022-07-11T03:15:10;12.07;;;4.40;;
19171;SDS011;9718;52.200;21.052;2022-07-11T03:17:37;8.70;;;4.70;;
19171;SDS011;9718;52.200;21.052;2022-07-11T03:20:05;8.43;;;3.90;;
19171;SDS011;9718;52.200;21.052;2022-07-11T03:22:33;15.10;;;4.43;;
19171;SDS011;9718;52.200;21.052;2022-07-11T03:25:01;6.23;;;4.47;;
19171;SDS011;9718;52.200;21.052;2022-07-11T03:27:33;9.93;;;4.67;;
19171;SDS011;9718;52.200;21.052;2022-07-11T03:30:01;10.33;;;4.40;;
19171;SDS011;9718;52.200;21.052;2022-07-11T03:32:29;7.00;;;4.20;;
19171;SDS011;9718;52.200;21.052;2022-07-11T03:34:57;6.77;;;3.83;;
19171;SDS011;9718;52.200;21.052;2022-07-11T03:37:42;11.87;;;3.90;;
19171;SDS011;9718;52.200;21.052;2022-07-11T03:40:10;6.87;;;4.10;;
19171;SDS011;9718;52.200;21.052;2022-07-11T03:42:37;8.40;;;4.47;;
19171;SDS011;9718;52.200;21.052;2022-07-11T03:45:04;7.17;;;3.70;;
19171;SDS011;9718;52.200;21.052;2022-07-11T03:47:32;8.40;;;4.43;;
19171;SDS011;9718;52.200;21.052;2022-07-11T03:49:59;7.73;;;3.80;;
19171;SDS011;9718;52.200;21.052;2022-07-11T03:52:27;13.13;;;4.40;;
19171;SDS011;9718;52.200;21.052;2022-07-11T03:54:54;8.27;;;4.07;;
19171;SDS011;9718;52.200;21.052;2022-07-11T03:57:21;12.30;;;3.93;;
19171;SDS011;9718;52.200;21.052;2022-07-11T03:59:48;6.20;;;3.67;;
19171;SDS011;9718;52.200;21.052;2022-07-11T04:02:16;9.93;;;3.70;;
19171;SDS011;9718;52.200;21.052;2022-07-11T04:04:43;8.57;;;3.80;;
19171;SDS011;9718;52.200;21.052;2022-07-11T04:07:10;5.40;;;3.33;;
19171;SDS011;9718;52.200;21.052;2022-07-11T04:09:37;11.20;;;3.40;;
19171;SDS011;9718;52.200;21.052;2022-07-11T04:12:04;9.53;;;3.10;;
19171;SDS011;9718;52.200;21.052;2022-07-11T04:14:31;9.27;;;3.20;;
19171;SDS011;9718;52.200;21.052;2022-07-11T04:16:59;8.50;;;3.13;;
19171;SDS011;9718;52.200;21.052;2022-07-11T04:19:26;6.03;;;2.93;;
19171;SDS011;9718;52.200;21.052;2022-07-11T04:21:53;4.23;;;2.63;;
19171;SDS011;9718;52.200;21.052;2022-07-11T04:24:20;4.70;;;3.23;;
19171;SDS011;9718;52.200;21.052;2022-07-11T04:26:47;9.00;;;3.10;;
19171;SDS011;9718;52.200;21.052;2022-07-11T04:29:14;7.80;;;3.20;;
19171;SDS011;9718;52.200;21.052;2022-07-11T04:31:42;6.83;;;3.30;;
19171;SDS011;9718;52.200;21.052;2022-07-11T04:34:09;8.13;;;3.67;;
19171;SDS011;9718;52.200;21.052;2022-07-11T04:36:36;8.10;;;3.00;;
19171;SDS011;9718;52.200;21.052;2022-07-11T04:39:03;9.33;;;3.43;;
19171;SDS011;9718;52.200;21.052;2022-07-11T04:41:30;5.77;;;3.50;;
19171;SDS011;9718;52.200;21.052;2022-07-11T04:43:57;5.27;;;3.20;;
19171;SDS011;9718;52.200;21.052;2022-07-11T04:46:24;7.13;;;3.70;;
19171;SDS011;9718;52.200;21.052;2022-07-11T04:48:52;10.93;;;3.87;;
19171;SDS011;9718;52.200;21.052;2022-07-11T04:51:19;6.80;;;3.20;;
19171;SDS011;9718;52.200;21.052;2022-07-11T04:53:46;13.33;;;3.30;;
19171;SDS011;9718;52.200;21.052;2022-07-11T04:56:13;8.30;;;4.10;;
19171;SDS011;9718;52.200;21.052;2022-07-11T04:58:40;7.43;;;3.33;;
19171;SDS011;9718;52.200;21.052;2022-07-11T05:01:07;11.13;;;3.87;;
19171;SDS011;9718;52.200;21.052;2022-07-11T05:03:35;7.50;;;3.57;;
19171;SDS011;9718;52.200;21.052;2022-07-11T05:06:03;7.67;;;3.70;;
19171;SDS011;9718;52.200;21.052;2022-07-11T05:08:31;6.10;;;3.47;;
19171;SDS011;9718;52.200;21.052;2022-07-11T05:11:03;7.57;;;3.83;;
19171;SDS011;9718;52.200;21.052;2022-07-11T05:13:31;9.10;;;3.67;;
19171;SDS011;9718;52.200;21.052;2022-07-11T05:15:59;16.93;;;4.43;;
19171;SDS011;9718;52.200;21.052;2022-07-11T05:18:26;6.33;;;3.13;;
19171;SDS011;9718;52.200;21.052;2022-07-11T05:20:53;11.90;;;4.53;;
19171;SDS011;9718;52.200;21.052;2022-07-11T05:23:21;11.77;;;4.20;;
19171;SDS011;9718;52.200;21.052;2022-07-11T05:25:48;10.37;;;4.30;;
19171;SDS011;9718;52.200;21.052;2022-07-11T05:28:15;12.30;;;4.63;;
19171;SDS011;9718;52.200;21.052;2022-07-11T05:30:42;9.90;;;4.40;;
19171;SDS011;9718;52.200;21.052;2022-07-11T05:33:09;8.87;;;4.47;;
19171;SDS011;9718;52.200;21.052;2022-07-11T05:35:36;9.53;;;4.43;;
19171;SDS011;9718;52.200;21.052;2022-07-11T05:38:04;13.33;;;4.83;;
19171;SDS011;9718;52.200;21.052;2022-07-11T05:40:31;6.87;;;4.47;;
19171;SDS011;9718;52.200;21.052;2022-07-11T05:42:58;10.63;;;5.60;;
19171;SDS011;9718;52.200;21.052;2022-07-11T05:45:27;11.03;;;5.60;;
19171;SDS011;9718;52.200;21.052;2022-07-11T05:47:54;9.10;;;4.37;;
19171;SDS011;9718;52.200;21.052;2022-07-11T05:50:22;14.50;;;5.57;;
19171;SDS011;9718;52.200;21.052;2022-07-11T05:52:49;11.13;;;5.50;;
19171;SDS011;9718;52.200;21.052;2022-07-11T05:55:16;12.57;;;6.03;;
19171;SDS011;9718;52.200;21.052;2022-07-11T05:57:44;15.47;;;8.37;;
19171;SDS011;9718;52.200;21.052;2022-07-11T06:00:12;14.47;;;8.03;;
19171;SDS011;9718;52.200;21.052;2022-07-11T06:02:39;13.23;;;8.07;;
19171;SDS011;9718;52.200;21.052;2022-07-11T06:05:07;12.07;;;8.00;;
19171;SDS011;9718;52.200;21.052;2022-07-11T06:07:34;14.27;;;9.17;;
19171;SDS011;9718;52.200;21.052;2022-07-11T06:10:25;14.03;;;9.00;;
19171;SDS011;9718;52.200;21.052;2022-07-11T06:12:54;11.23;;;7.90;;
19171;SDS011;9718;52.200;21.052;2022-07-11T06:15:22;12.87;;;7.20;;
19171;SDS011;9718;52.200;21.052;2022-07-11T06:17:49;10.80;;;6.87;;
19171;SDS011;9718;52.200;21.052;2022-07-11T06:20:17;8.50;;;5.67;;
19171;SDS011;9718;52.200;21.052;2022-07-11T06:22:44;9.80;;;6.00;;
19171;SDS011;9718;52.200;21.052;2022-07-11T06:25:11;8.70;;;5.93;;
19171;SDS011;9718;52.200;21.052;2022-07-11T06:27:38;7.33;;;4.40;;
19171;SDS011;9718;52.200;21.052;2022-07-11T06:30:05;9.97;;;4.30;;
19171;SDS011;9718;52.200;21.052;2022-07-11T06:32:33;9.63;;;5.40;;
19171;SDS011;9718;52.200;21.052;2022-07-11T06:35:00;9.07;;;4.23;;
19171;SDS011;9718;52.200;21.052;2022-07-11T06:37:27;8.07;;;3.60;;
19171;SDS011;9718;52.200;21.052;2022-07-11T06:39:54;8.70;;;4.37;;
19171;SDS011;9718;52.200;21.052;2022-07-11T06:42:21;6.67;;;3.37;;
19171;SDS011;9718;52.200;21.052;2022-07-11T06:44:51;7.43;;;3.10;;
19171;SDS011;9718;52.200;21.052;2022-07-11T06:47:19;4.03;;;3.37;;
19171;SDS011;9718;52.200;21.052;2022-07-11T06:49:46;8.70;;;3.07;;
19171;SDS011;9718;52.200;21.052;2022-07-11T06:52:13;6.27;;;3.63;;
19171;SDS011;9718;52.200;21.052;2022-07-11T06:54:40;6.97;;;3.40;;
19171;SDS011;9718;52.200;21.052;2022-07-11T06:57:08;5.80;;;3.20;;
19171;SDS011;9718;52.200;21.052;2022-07-11T06:59:38;7.60;;;3.10;;
19171;SDS011;9718;52.200;21.052;2022-07-11T07:02:05;6.63;;;3.60;;
19171;SDS011;9718;52.200;21.052;2022-07-11T07:04:33;5.17;;;2.90;;
19171;SDS011;9718;52.200;21.052;2022-07-11T07:07:01;6.03;;;3.70;;
19171;SDS011;9718;52.200;21.052;2022-07-11T07:09:28;9.17;;;3.53;;
19171;SDS011;9718;52.200;21.052;2022-07-11T07:11:56;9.40;;;3.13;;
19171;SDS011;9718;52.200;21.052;2022-07-11T07:14:23;7.40;;;3.60;;
19171;SDS011;9718;52.200;21.052;2022-07-11T07:16:51;6.60;;;3.70;;
19171;SDS011;9718;52.200;21.052;2022-07-11T07:19:18;7.97;;;4.33;;
19171;SDS011;9718;52.200;21.052;2022-07-11T07:21:45;10.93;;;4.03;;
19171;SDS011;9718;52.200;21.052;2022-07-11T07:24:13;5.23;;;3.70;;
19171;SDS011;9718;52.200;21.052;2022-07-11T07:26:43;6.03;;;3.87;;
19171;SDS011;9718;52.200;21.052;2022-07-11T07:29:11;15.57;;;4.60;;
19171;SDS011;9718;52.200;21.052;2022-07-11T07:31:38;7.97;;;4.40;;
19171;SDS011;9718;52.200;21.052;2022-07-11T07:34:05;13.23;;;4.73;;
19171;SDS011;9718;52.200;21.052;2022-07-11T07:36:32;9.30;;;4.23;;
19171;SDS011;9718;52.200;21.052;2022-07-11T07:39:00;12.00;;;4.93;;
19171;SDS011;9718;52.200;21.052;2022-07-11T07:41:27;9.97;;;5.33;;
19171;SDS011;9718;52.200;21.052;2022-07-11T07:43:54;13.27;;;4.80;;
19171;SDS011;9718;52.200;21.052;2022-07-11T07:46:21;11.77;;;5.13;;
19171;SDS011;9718;52.200;21.052;2022-07-11T07:48:49;9.67;;;5.67;;
19171;SDS011;9718;52.200;21.052;2022-07-11T07:51:16;11.93;;;5.80;;
19171;SDS011;9718;52.200;21.052;2022-07-11T07:53:43;8.47;;;5.33;;
19171;SDS011;9718;52.200;21.052;2022-07-11T07:56:10;10.87;;;6.10;;
19171;SDS011;9718;52.200;21.052;2022-07-11T07:58:37;13.33;;;6.47;;
19171;SDS011;9718;52.200;21.052;2022-07-11T08:01:05;11.53;;;5.93;;
19171;SDS011;9718;52.200;21.052;2022-07-11T08:03:52;11.83;;;6.40;;
19171;SDS011;9718;52.200;21.052;2022-07-11T08:06:19;9.73;;;5.90;;
19171;SDS011;9718;52.200;21.052;2022-07-11T08:08:47;12.77;;;7.13;;
19171;SDS011;9718;52.200;21.052;2022-07-11T08:11:16;15.43;;;6.50;;
19171;SDS011;9718;52.200;21.052;2022-07-11T08:13:57;14.47;;;6.40;;
19171;SDS011;9718;52.200;21.052;2022-07-11T08:16:25;9.20;;;5.90;;
19171;SDS011;9718;52.200;21.052;2022-07-11T08:18:57;13.53;;;6.40;;
19171;SDS011;9718;52.200;21.052;2022-07-11T08:21:29;10.70;;;5.70;;
19171;SDS011;9718;52.200;21.052;2022-07-11T08:23:58;13.47;;;6.03;;
19171;SDS011;9718;52.200;21.052;2022-07-11T08:26:25;9.77;;;4.90;;
19171;SDS011;9718;52.200;21.052;2022-07-11T08:29:02;10.37;;;6.10;;
19171;SDS011;9718;52.200;21.052;2022-07-11T08:31:30;12.80;;;6.20;;
19171;SDS011;9718;52.200;21.052;2022-07-11T08:33:58;15.63;;;7.23;;
19171;SDS011;9718;52.200;21.052;2022-07-11T08:36:27;12.00;;;6.40;;
19171;SDS011;9718;52.200;21.052;2022-07-11T08:38:56;11.43;;;6.37;;
19171;SDS011;9718;52.200;21.052;2022-07-11T08:41:24;11.53;;;5.60;;
19171;SDS011;9718;52.200;21.052;2022-07-11T08:43:51;9.20;;;5.57;;
19171;SDS011;9718;52.200;21.052;2022-07-11T08:46:19;8.43;;;5.03;;
19171;SDS011;9718;52.200;21.052;2022-07-11T08:48:46;7.00;;;4.60;;
19171;SDS011;9718;52.200;21.052;2022-07-11T08:51:15;9.00;;;3.47;;
19171;SDS011;9718;52.200;21.052;2022-07-11T08:53:42;4.63;;;2.53;;
19171;SDS011;9718;52.200;21.052;2022-07-11T08:56:12;5.90;;;2.33;;
19171;SDS011;9718;52.200;21.052;2022-07-11T08:58:45;5.00;;;1.70;;
19171;SDS011;9718;52.200;21.052;2022-07-11T09:01:22;2.03;;;1.70;;
19171;SDS011;9718;52.200;21.052;2022-07-11T09:03:58;4.40;;;2.03;;
19171;SDS011;9718;52.200;21.052;2022-07-11T09:06:26;4.23;;;1.97;;
19171;SDS011;9718;52.200;21.052;2022-07-11T09:08:57;2.90;;;1.90;;
19171;SDS011;9718;52.200;21.052;2022-07-11T09:11:25;4.57;;;2.30;;
19171;SDS011;9718;52.200;21.052;2022-07-11T09:13:53;3.90;;;2.40;;
19171;SDS011;9718;52.200;21.052;2022-07-11T09:16:20;4.93;;;2.60;;
19171;SDS011;9718;52.200;21.052;2022-07-11T09:18:49;3.90;;;2.53;;
19171;SDS011;9718;52.200;21.052;2022-07-11T09:21:16;3.27;;;2.33;;
19171;SDS011;9718;52.200;21.052;2022-07-11T09:24:03;4.90;;;2.20;;
19171;SDS011;9718;52.200;21.052;2022-07-11T09:26:50;3.07;;;1.73;;
19171;SDS011;9718;52.200;21.052;2022-07-11T09:29:21;4.07;;;2.13;;
19171;SDS011;9718;52.200;21.052;2022-07-11T09:31:52;2.57;;;1.47;;
19171;SDS011;9718;52.200;21.052;2022-07-11T09:34:23;2.40;;;1.70;;
19171;SDS011;9718;52.200;21.052;2022-07-11T09:36:54;2.50;;;1.30;;
19171;SDS011;9718;52.200;21.052;2022-07-11T09:41:56;1.87;;;0.63;;
19171;SDS011;9718;52.200;21.052;2022-07-11T09:44:25;2.57;;;0.97;;
19171;SDS011;9718;52.200;21.052;2022-07-11T09:46:59;1.50;;;0.77;;
19171;SDS011;9718;52.200;21.052;2022-07-11T09:49:35;1.10;;;0.50;;
19171;SDS011;9718;52.200;21.052;2022-07-11T09:52:11;0.83;;;0.50;;
19171;SDS011;9718;52.200;21.052;2022-07-11T09:54:51;0.63;;;0.50;;
19171;SDS011;9718;52.200;21.052;2022-07-11T10:00:02;1.20;;;0.60;;
19171;SDS011;9718;52.200;21.052;2022-07-11T10:02:31;3.10;;;0.40;;
19171;SDS011;9718;52.200;21.052;2022-07-11T10:04:59;2.10;;;0.50;;
19171;SDS011;9718;52.200;21.052;2022-07-11T10:07:27;1.43;;;0.50;;
19171;SDS011;9718;52.200;21.052;2022-07-11T10:09:56;1.20;;;0.57;;
19171;SDS011;9718;52.200;21.052;2022-07-11T10:12:25;0.40;;;0.40;;
19171;SDS011;9718;52.200;21.052;2022-07-11T10:14:54;0.70;;;0.47;;
19171;SDS011;9718;52.200;21.052;2022-07-11T10:17:41;0.80;;;0.40;;
19171;SDS011;9718;52.200;21.052;2022-07-11T10:20:26;0.20;;;0.20;;
19171;SDS011;9718;52.200;21.052;2022-07-11T10:31:17;0.60;;;0.30;;
19171;SDS011;9718;52.200;21.052;2022-07-11T10:36:40;1.33;;;0.10;;
19171;SDS011;9718;52.200;21.052;2022-07-11T10:39:21;1.03;;;0.30;;
19171;SDS011;9718;52.200;21.052;2022-07-11T10:41:53;1.07;;;0.30;;
19171;SDS011;9718;52.200;21.052;2022-07-11T10:44:21;1.53;;;0.37;;
19171;SDS011;9718;52.200;21.052;2022-07-11T10:46:49;1.03;;;0.60;;
19171;SDS011;9718;52.200;21.052;2022-07-11T10:49:17;0.40;;;0.33;;
19171;SDS011;9718;52.200;21.052;2022-07-11T10:54:52;0.87;;;0.50;;
19171;SDS011;9718;52.200;21.052;2022-07-11T11:00:20;0.50;;;0.43;;
19171;SDS011;9718;52.200;21.052;2022-07-11T11:03:01;2.60;;;0.50;;
19171;SDS011;9718;52.200;21.052;2022-07-11T11:10:55;1.10;;;0.60;;
19171;SDS011;9718;52.200;21.052;2022-07-11T11:13:22;1.70;;;0.30;;
19171;SDS011;9718;52.200;21.052;2022-07-11T11:15:50;0.77;;;0.50;;
19171;SDS011;9718;52.200;21.052;2022-07-11T11:18:41;0.40;;;0.37;;
19171;SDS011;9718;52.200;21.052;2022-07-11T11:23:40;0.50;;;0.50;;
19171;SDS011;9718;52.200;21.052;2022-07-11T11:26:16;0.67;;;0.67;;
19171;SDS011;9718;52.200;21.052;2022-07-11T11:28:55;0.40;;;0.27;;
19171;SDS011;9718;52.200;21.052;2022-07-11T11:31:31;2.47;;;0.30;;
19171;SDS011;9718;52.200;21.052;2022-07-11T11:34:03;0.40;;;0.30;;
19171;SDS011;9718;52.200;21.052;2022-07-11T11:36:31;3.30;;;0.30;;
19171;SDS011;9718;52.200;21.052;2022-07-11T11:38:58;2.33;;;0.40;;
19171;SDS011;9718;52.200;21.052;2022-07-11T11:41:26;1.00;;;0.57;;
19171;SDS011;9718;52.200;21.052;2022-07-11T11:43:58;0.87;;;0.30;;
19171;SDS011;9718;52.200;21.052;2022-07-11T11:46:27;1.80;;;0.50;;
19171;SDS011;9718;52.200;21.052;2022-07-11T11:48:58;0.33;;;0.33;;
19171;SDS011;9718;52.200;21.052;2022-07-11T11:51:31;2.67;;;0.67;;
19171;SDS011;9718;52.200;21.052;2022-07-11T11:53:59;1.43;;;0.30;;
19171;SDS011;9718;52.200;21.052;2022-07-11T11:56:29;0.30;;;0.30;;
19171;SDS011;9718;52.200;21.052;2022-07-11T12:01:36;0.50;;;0.50;;
19171;SDS011;9718;52.200;21.052;2022-07-11T12:04:06;0.30;;;0.30;;
19171;SDS011;9718;52.200;21.052;2022-07-11T12:06:38;0.33;;;0.33;;
19171;SDS011;9718;52.200;21.052;2022-07-11T12:09:10;0.67;;;0.43;;
19171;SDS011;9718;52.200;21.052;2022-07-11T12:11:46;0.40;;;0.40;;
19171;SDS011;9718;52.200;21.052;2022-07-11T12:14:15;0.40;;;0.33;;
19171;SDS011;9718;52.200;21.052;2022-07-11T12:16:45;0.30;;;0.30;;
19171;SDS011;9718;52.200;21.052;2022-07-11T12:19:21;3.90;;;0.40;;
19171;SDS011;9718;52.200;21.052;2022-07-11T12:21:50;1.83;;;0.40;;
19171;SDS011;9718;52.200;21.052;2022-07-11T12:24:20;1.07;;;0.40;;
19171;SDS011;9718;52.200;21.052;2022-07-11T12:26:54;0.30;;;0.30;;
19171;SDS011;9718;52.200;21.052;2022-07-11T12:29:23;1.43;;;0.70;;
19171;SDS011;9718;52.200;21.052;2022-07-11T12:34:41;0.37;;;0.30;;
19171;SDS011;9718;52.200;21.052;2022-07-11T12:39:47;5.00;;;0.80;;
19171;SDS011;9718;52.200;21.052;2022-07-11T12:45:03;2.83;;;0.60;;
19171;SDS011;9718;52.200;21.052;2022-07-11T12:47:45;5.37;;;0.60;;
19171;SDS011;9718;52.200;21.052;2022-07-11T12:50:21;8.77;;;1.47;;
19171;SDS011;9718;52.200;21.052;2022-07-11T12:52:53;2.33;;;0.80;;
19171;SDS011;9718;52.200;21.052;2022-07-11T12:55:27;7.27;;;0.90;;
19171;SDS011;9718;52.200;21.052;2022-07-11T13:00:29;6.47;;;0.97;;
19171;SDS011;9718;52.200;21.052;2022-07-11T13:02:58;3.17;;;0.80;;
19171;SDS011;9718;52.200;21.052;2022-07-11T13:05:26;2.00;;;0.70;;
19171;SDS011;9718;52.200;21.052;2022-07-11T13:07:53;2.50;;;1.17;;
19171;SDS011;9718;52.200;21.052;2022-07-11T13:10:39;1.20;;;0.53;;
19171;SDS011;9718;52.200;21.052;2022-07-11T13:13:31;3.80;;;0.97;;
19171;SDS011;9718;52.200;21.052;2022-07-11T13:15:59;1.37;;;0.70;;
19171;SDS011;9718;52.200;21.052;2022-07-11T13:18:26;1.77;;;0.90;;
19171;SDS011;9718;52.200;21.052;2022-07-11T13:20:53;2.40;;;0.80;;
19171;SDS011;9718;52.200;21.052;2022-07-11T13:23:22;0.60;;;0.57;;
19171;SDS011;9718;52.200;21.052;2022-07-11T13:25:49;2.43;;;0.80;;
19171;SDS011;9718;52.200;21.052;2022-07-11T13:28:16;1.33;;;1.00;;
19171;SDS011;9718;52.200;21.052;2022-07-11T13:30:45;2.70;;;1.00;;
19171;SDS011;9718;52.200;21.052;2022-07-11T13:33:34;1.33;;;0.90;;
19171;SDS011;9718;52.200;21.052;2022-07-11T13:36:01;3.23;;;1.10;;
19171;SDS011;9718;52.200;21.052;2022-07-11T13:38:28;3.37;;;0.93;;
19171;SDS011;9718;52.200;21.052;2022-07-11T13:40:55;1.93;;;0.93;;
19171;SDS011;9718;52.200;21.052;2022-07-11T13:43:22;1.50;;;1.00;;
19171;SDS011;9718;52.200;21.052;2022-07-11T13:45:49;5.00;;;1.00;;
19171;SDS011;9718;52.200;21.052;2022-07-11T13:48:18;2.97;;;0.80;;
19171;SDS011;9718;52.200;21.052;2022-07-11T13:50:45;2.07;;;1.03;;
19171;SDS011;9718;52.200;21.052;2022-07-11T13:53:12;2.27;;;0.90;;
19171;SDS011;9718;52.200;21.052;2022-07-11T13:55:40;5.70;;;1.27;;
19171;SDS011;9718;52.200;21.052;2022-07-11T13:58:08;1.20;;;1.07;;
19171;SDS011;9718;52.200;21.052;2022-07-11T14:00:56;4.27;;;1.17;;
19171;SDS011;9718;52.200;21.052;2022-07-11T14:03:24;2.90;;;1.20;;
19171;SDS011;9718;52.200;21.052;2022-07-11T14:05:52;1.97;;;0.77;;
19171;SDS011;9718;52.200;21.052;2022-07-11T14:08:19;1.97;;;0.77;;
19171;SDS011;9718;52.200;21.052;2022-07-11T14:10:47;1.33;;;0.90;;
19171;SDS011;9718;52.200;21.052;2022-07-11T14:13:14;1.33;;;1.00;;
19171;SDS011;9718;52.200;21.052;2022-07-11T14:15:41;0.70;;;0.70;;
19171;SDS011;9718;52.200;21.052;2022-07-11T14:18:09;2.20;;;0.90;;
19171;SDS011;9718;52.200;21.052;2022-07-11T14:20:36;1.33;;;0.90;;
19171;SDS011;9718;52.200;21.052;2022-07-11T14:23:03;1.30;;;1.13;;
19171;SDS011;9718;52.200;21.052;2022-07-11T14:25:30;2.27;;;1.10;;
19171;SDS011;9718;52.200;21.052;2022-07-11T14:27:58;4.00;;;0.90;;
19171;SDS011;9718;52.200;21.052;2022-07-11T14:30:26;2.10;;;1.00;;
19171;SDS011;9718;52.200;21.052;2022-07-11T14:32:53;1.57;;;0.97;;
19171;SDS011;9718;52.200;21.052;2022-07-11T14:35:20;3.07;;;0.87;;
19171;SDS011;9718;52.200;21.052;2022-07-11T14:37:47;3.97;;;0.87;;
19171;SDS011;9718;52.200;21.052;2022-07-11T14:40:15;4.07;;;1.17;;
19171;SDS011;9718;52.200;21.052;2022-07-11T14:42:42;2.33;;;1.10;;
19171;SDS011;9718;52.200;21.052;2022-07-11T14:45:09;4.43;;;1.27;;
19171;SDS011;9718;52.200;21.052;2022-07-11T14:47:39;1.43;;;1.10;;
19171;SDS011;9718;52.200;21.052;2022-07-11T14:50:07;5.73;;;0.87;;
19171;SDS011;9718;52.200;21.052;2022-07-11T14:52:36;1.40;;;0.83;;
19171;SDS011;9718;52.200;21.052;2022-07-11T14:55:04;1.33;;;0.77;;
19171;SDS011;9718;52.200;21.052;2022-07-11T14:57:32;1.43;;;1.20;;
19171;SDS011;9718;52.200;21.052;2022-07-11T15:00:00;2.20;;;0.60;;
19171;SDS011;9718;52.200;21.052;2022-07-11T15:02:27;0.77;;;0.43;;
19171;SDS011;9718;52.200;21.052;2022-07-11T15:05:14;1.83;;;0.67;;
19171;SDS011;9718;52.200;21.052;2022-07-11T15:07:41;3.90;;;0.80;;
19171;SDS011;9718;52.200;21.052;2022-07-11T15:10:27;0.97;;;0.43;;
19171;SDS011;9718;52.200;21.052;2022-07-11T15:13:22;1.50;;;0.63;;
19171;SDS011;9718;52.200;21.052;2022-07-11T15:15:53;1.17;;;0.50;;
19171;SDS011;9718;52.200;21.052;2022-07-11T15:18:20;1.13;;;0.50;;
19171;SDS011;9718;52.200;21.052;2022-07-11T15:20:47;1.23;;;0.50;;
19171;SDS011;9718;52.200;21.052;2022-07-11T15:23:15;1.77;;;0.40;;
19171;SDS011;9718;52.200;21.052;2022-07-11T15:25:42;4.37;;;0.57;;
19171;SDS011;9718;52.200;21.052;2022-07-11T15:28:09;0.60;;;0.50;;
19171;SDS011;9718;52.200;21.052;2022-07-11T15:30:44;1.47;;;0.60;;
19171;SDS011;9718;52.200;21.052;2022-07-11T15:33:11;0.93;;;0.60;;
19171;SDS011;9718;52.200;21.052;2022-07-11T15:35:38;4.20;;;0.60;;
19171;SDS011;9718;52.200;21.052;2022-07-11T15:38:05;2.20;;;0.50;;
19171;SDS011;9718;52.200;21.052;2022-07-11T15:40:32;0.60;;;0.60;;
19171;SDS011;9718;52.200;21.052;2022-07-11T15:43:00;0.40;;;0.40;;